Time;durP1;ratioP1;P1;durP2;ratioP2;P2;SDS_P1;SDS_P2;PMS_P1;PMS_P2;Temp;Humidity;BMP_temperature;BMP_pressure;BME280_temperature;BME280_humidity;BME280_pressure;Samples;Min_cycle;Max_cycle;Signal;HPM_P1;HPM_P2
2021/12/01 00:00:09;;;;;;;16.23;8.23;;;-0.10;99.90;;;;;;4143474;28;20275;-51
2021/12/01 00:02:10;;;;;;;18.83;8.37;;;-0.10;99.90;;;;;;4144407;28;20292;-57
2021/12/01 00:04:11;;;;;;;17.63;8.40;;;-0.10;99.90;;;;;;4142568;28;20312;-57
2021/12/01 00:06:13;;;;;;;16.03;7.77;;;-0.10;99.90;;;;;;4142054;28;20267;-59
2021/12/01 00:08:14;;;;;;;15.10;7.33;;;-0.10;99.90;;;;;;4133586;28;20260;-58
2021/12/01 00:10:16;;;;;;;13.17;6.53;;;-0.10;99.90;;;;;;4127586;28;20323;-58
2021/12/01 00:12:18;;;;;;;10.37;5.77;;;-0.20;99.90;;;;;;4127605;28;20276;-58
2021/12/01 00:14:20;;;;;;;15.43;7.13;;;-0.20;99.90;;;;;;4127279;28;20260;-56
2021/12/01 00:16:21;;;;;;;13.47;6.63;;;-0.20;99.90;;;;;;4140559;28;20283;-59
2021/12/01 00:18:23;;;;;;;8.20;4.50;;;-0.30;99.90;;;;;;4143507;28;20341;-58
2021/12/01 00:20:24;;;;;;;8.07;4.33;;;-0.30;99.90;;;;;;4144142;28;20276;-55
2021/12/01 00:22:26;;;;;;;12.13;5.67;;;-0.30;99.90;;;;;;4143030;28;20322;-54
2021/12/01 00:24:27;;;;;;;10.20;5.40;;;-0.20;99.90;;;;;;4159057;28;20305;-57
2021/12/01 00:26:29;;;;;;;9.17;3.97;;;-0.20;99.90;;;;;;4142451;28;20279;-52
2021/12/01 00:28:30;;;;;;;8.23;4.30;;;-0.20;99.90;;;;;;4144135;28;20330;-59
2021/12/01 00:30:31;;;;;;;6.60;3.53;;;-0.10;99.90;;;;;;4142842;28;20275;-57
2021/12/01 00:32:34;;;;;;;5.60;3.53;;;-0.10;99.90;;;;;;4146203;28;20317;-64
2021/12/01 00:34:36;;;;;;;6.13;3.70;;;0.00;99.90;;;;;;4142634;28;20769;-53
2021/12/01 00:36:37;;;;;;;9.03;3.87;;;0.00;99.90;;;;;;4143362;28;21281;-61
2021/12/01 00:38:38;;;;;;;6.90;3.67;;;0.10;99.90;;;;;;4142530;28;20814;-57
2021/12/01 00:40:39;;;;;;;12.10;4.90;;;0.10;99.90;;;;;;4130622;28;20708;-63
2021/12/01 00:42:42;;;;;;;8.13;4.93;;;0.10;99.90;;;;;;4142793;28;20295;-56
2021/12/01 00:44:53;;;;;;;7.90;4.70;;;0.20;99.90;;;;;;4142202;28;20524;-59
2021/12/01 00:48:59;;;;;;;8.13;3.73;;;0.20;99.90;;;;;;4142705;28;20337;-55
2021/12/01 00:51:00;;;;;;;5.53;3.30;;;0.10;99.90;;;;;;4141028;28;20260;-56
2021/12/01 00:53:04;;;;;;;8.10;3.57;;;0.00;99.90;;;;;;4126734;28;20276;-55
2021/12/01 00:55:07;;;;;;;6.07;3.63;;;0.00;99.90;;;;;;4126947;28;20327;-54
2021/12/01 00:57:08;;;;;;;6.03;3.47;;;0.00;99.90;;;;;;4126526;28;20890;-56
2021/12/01 00:59:09;;;;;;;4.63;2.90;;;0.10;99.90;;;;;;4129767;28;20276;-56
2021/12/01 01:01:10;;;;;;;4.67;3.03;;;0.10;99.90;;;;;;4142246;28;20833;-55
2021/12/01 01:03:12;;;;;;;6.07;3.30;;;0.10;99.90;;;;;;4142750;28;20805;-55
2021/12/01 01:05:13;;;;;;;6.57;3.43;;;0.10;99.90;;;;;;4142305;28;20297;-57
2021/12/01 01:07:15;;;;;;;6.50;3.87;;;0.20;99.90;;;;;;4143276;28;20670;-55
2021/12/01 01:09:16;;;;;;;8.30;4.07;;;0.20;99.90;;;;;;4142587;28;20338;-57
2021/12/01 01:18:17;;;;;;;12.40;5.90;;;0.40;99.90;;;;;;4141589;28;20042;-50
2021/12/01 01:20:19;;;;;;;10.23;5.80;;;0.50;99.90;;;;;;4143564;28;20467;-51
2021/12/01 01:22:20;;;;;;;11.13;6.50;;;0.50;99.90;;;;;;4141676;28;20303;-55
2021/12/01 01:24:21;;;;;;;13.23;6.43;;;0.50;99.90;;;;;;4143218;28;20818;-53
2021/12/01 01:26:25;;;;;;;9.13;5.43;;;0.60;99.90;;;;;;4142532;28;20724;-53
2021/12/01 01:28:26;;;;;;;7.27;4.50;;;0.60;99.90;;;;;;4142684;28;20272;-55
2021/12/01 01:30:28;;;;;;;7.67;4.50;;;0.60;99.90;;;;;;4142337;28;20275;-57
2021/12/01 01:32:31;;;;;;;10.03;4.83;;;0.50;99.90;;;;;;4142347;28;20291;-53
2021/12/01 01:34:34;;;;;;;9.40;5.33;;;0.50;99.90;;;;;;4141231;28;20324;-57
2021/12/01 01:36:35;;;;;;;6.90;4.73;;;0.50;99.90;;;;;;4126081;28;20288;-56
2021/12/01 01:38:37;;;;;;;9.07;4.50;;;0.50;99.90;;;;;;4126185;28;20276;-54
2021/12/01 01:40:39;;;;;;;10.60;5.60;;;0.50;99.90;;;;;;4125671;28;21022;-57
2021/12/01 01:42:40;;;;;;;12.33;5.30;;;0.60;99.90;;;;;;4127764;28;20299;-58
2021/12/01 01:44:41;;;;;;;9.67;5.37;;;0.60;99.90;;;;;;4141793;28;20274;-56
2021/12/01 01:46:42;;;;;;;18.70;9.00;;;0.60;99.90;;;;;;4128726;28;20272;-55
2021/12/01 01:48:54;;;;;;;14.23;7.07;;;0.70;99.90;;;;;;4125718;28;20330;-57
2021/12/01 01:50:55;;;;;;;15.80;7.57;;;0.60;99.90;;;;;;4127039;28;20339;-53
2021/12/01 01:52:57;;;;;;;13.47;6.80;;;0.50;99.90;;;;;;4125768;28;20338;-58
2021/12/01 01:54:58;;;;;;;14.10;7.10;;;0.50;99.90;;;;;;4126917;28;20914;-53
2021/12/01 01:56:59;;;;;;;12.80;7.23;;;0.50;99.90;;;;;;4125029;28;20268;-56
2021/12/01 01:59:00;;;;;;;14.90;6.73;;;0.50;99.90;;;;;;4126445;28;20370;-56
2021/12/01 02:01:22;;;;;;;13.83;6.90;;;0.60;99.90;;;;;;4125207;28;20330;-57
2021/12/01 02:03:23;;;;;;;11.50;5.57;;;0.50;99.90;;;;;;4126340;28;20874;-55
2021/12/01 02:05:25;;;;;;;10.83;5.47;;;0.50;99.90;;;;;;4124506;28;20252;-56
2021/12/01 02:07:26;;;;;;;11.27;5.30;;;0.50;99.90;;;;;;4126118;28;20322;-60
2021/12/01 02:09:27;;;;;;;9.93;5.10;;;0.60;99.90;;;;;;4126517;28;20331;-55
2021/12/01 02:11:29;;;;;;;11.97;5.13;;;0.60;99.90;;;;;;4126025;28;20764;-55
2021/12/01 02:13:31;;;;;;;6.77;4.23;;;0.60;99.90;;;;;;4125690;28;20260;-51
2021/12/01 02:15:32;;;;;;;9.30;4.70;;;0.60;99.90;;;;;;4125267;28;20806;-55
2021/12/01 02:17:34;;;;;;;9.33;5.07;;;0.70;99.90;;;;;;4126223;28;20288;-57
2021/12/01 02:19:39;;;;;;;13.17;5.23;;;0.70;99.90;;;;;;4126341;28;20342;-54
2021/12/01 02:21:41;;;;;;;13.30;5.77;;;0.80;99.90;;;;;;4126545;28;20401;-52
2021/12/01 02:23:48;;;;;;;11.77;6.43;;;0.80;99.90;;;;;;4124781;28;20342;-57
2021/12/01 02:25:50;;;;;;;12.90;5.07;;;0.90;99.90;;;;;;4125828;28;20315;-53
2021/12/01 02:27:51;;;;;;;9.67;5.30;;;0.90;99.90;;;;;;4124990;28;20318;-55
2021/12/01 02:29:52;;;;;;;8.67;4.67;;;1.00;99.90;;;;;;4125941;28;20316;-53
2021/12/01 02:31:54;;;;;;;12.17;5.20;;;1.00;99.90;;;;;;4124520;28;20361;-54
2021/12/01 02:33:57;;;;;;;10.97;5.80;;;1.00;99.90;;;;;;4125868;28;20260;-54
2021/12/01 02:35:58;;;;;;;13.03;5.43;;;1.10;99.90;;;;;;4124584;28;20272;-54
2021/12/01 02:38:01;;;;;;;14.10;5.93;;;1.10;99.90;;;;;;4126152;28;20268;-58
2021/12/01 02:40:04;;;;;;;9.77;5.23;;;1.20;99.90;;;;;;4135540;28;20334;-55
2021/12/01 02:42:07;;;;;;;12.00;5.80;;;1.20;99.90;;;;;;4142085;28;20349;-56
2021/12/01 02:44:12;;;;;;;7.90;3.90;;;1.30;99.90;;;;;;4140835;28;20675;-55
2021/12/01 02:46:14;;;;;;;7.13;2.03;;;1.30;99.90;;;;;;4141273;28;20263;-55
2021/12/01 02:48:15;;;;;;;1.97;1.40;;;1.50;99.90;;;;;;4141755;28;20314;-56
2021/12/01 02:50:16;;;;;;;4.00;1.00;;;1.80;99.90;;;;;;4141022;28;20802;-55
2021/12/01 02:52:17;;;;;;;0.83;0.73;;;1.90;99.90;;;;;;4140792;28;20743;-54
2021/12/01 02:54:18;;;;;;;0.57;0.27;;;2.20;99.90;;;;;;4138998;28;20287;-55
2021/12/01 02:56:27;;;;;;;1.47;0.20;;;2.40;99.90;;;;;;4141434;28;20360;-56
2021/12/01 02:58:38;;;;;;;0.47;0.20;;;2.60;99.90;;;;;;4140448;28;20280;-61
2021/12/01 03:00:39;;;;;;;1.60;0.70;;;2.80;99.90;;;;;;4142159;28;20349;-57
2021/12/01 03:02:41;;;;;;;8.70;0.63;;;2.90;99.90;;;;;;4140513;28;20049;-54
2021/12/01 03:04:42;;;;;;;1.07;0.20;;;3.00;99.90;;;;;;4141625;28;20279;-54
2021/12/01 03:06:45;;;;;;;0.70;0.20;;;3.00;99.90;;;;;;4140272;28;20764;-58
2021/12/01 03:08:47;;;;;;;0.40;0.13;;;3.10;99.90;;;;;;4142019;28;20748;-56
2021/12/01 03:10:52;;;;;;;1.33;0.30;;;3.10;99.90;;;;;;4140601;28;20805;-58
2021/12/01 03:12:55;;;;;;;2.00;0.63;;;3.10;99.90;;;;;;4142050;28;20279;-52
2021/12/01 03:14:57;;;;;;;1.40;0.23;;;3.10;99.90;;;;;;4140504;28;20275;-61
2021/12/01 03:16:58;;;;;;;0.37;0.20;;;3.10;99.90;;;;;;4140691;28;20747;-53
2021/12/01 03:18:59;;;;;;;1.17;0.30;;;3.10;99.90;;;;;;4139895;28;20844;-55
2021/12/01 03:21:01;;;;;;;0.70;0.47;;;3.00;99.90;;;;;;4141792;28;20313;-54
2021/12/01 03:23:02;;;;;;;2.10;0.40;;;3.00;99.90;;;;;;4137640;28;20295;-57
2021/12/01 03:25:14;;;;;;;0.77;0.53;;;3.00;99.90;;;;;;4140449;28;20313;-53
2021/12/01 03:27:16;;;;;;;0.50;0.50;;;2.90;99.90;;;;;;4140574;28;20313;-54
2021/12/01 03:29:17;;;;;;;0.50;0.50;;;2.90;99.90;;;;;;4137552;28;20361;-56
2021/12/01 03:31:18;;;;;;;0.90;0.50;;;2.90;99.90;;;;;;4124662;28;20331;-55
2021/12/01 03:33:21;;;;;;;4.37;0.80;;;2.90;99.90;;;;;;4124027;28;20681;-53
2021/12/01 03:35:23;;;;;;;1.50;0.93;;;2.80;99.90;;;;;;4124813;28;20732;-60
2021/12/01 03:37:24;;;;;;;1.50;0.90;;;2.80;99.90;;;;;;4124078;28;20280;-54
2021/12/01 03:39:25;;;;;;;2.23;1.07;;;2.80;99.90;;;;;;4125101;28;20285;-53
2021/12/01 03:41:26;;;;;;;0.97;0.90;;;2.90;99.90;;;;;;4123611;28;20267;-58
2021/12/01 03:43:28;;;;;;;2.43;0.93;;;2.80;99.90;;;;;;4125221;28;20272;-57
2021/12/01 03:45:29;;;;;;;0.80;0.73;;;2.80;99.90;;;;;;4123744;28;20268;-54
2021/12/01 03:47:30;;;;;;;0.97;0.87;;;2.80;99.90;;;;;;4125093;28;20280;-54
2021/12/01 03:49:31;;;;;;;1.27;0.90;;;2.80;99.90;;;;;;4124267;28;20690;-55
2021/12/01 03:51:33;;;;;;;2.33;1.20;;;2.80;99.90;;;;;;4125018;28;20330;-54
2021/12/01 03:53:35;;;;;;;2.20;1.37;;;2.80;99.90;;;;;;4123453;28;20264;-53
2021/12/01 03:55:36;;;;;;;1.53;1.17;;;2.80;99.90;;;;;;4137898;28;20370;-56
2021/12/01 03:57:38;;;;;;;2.00;0.90;;;2.80;99.90;;;;;;4140253;28;20260;-55
2021/12/01 03:59:39;;;;;;;1.70;1.50;;;2.80;99.90;;;;;;4140546;28;20280;-57
2021/12/01 04:01:40;;;;;;;1.60;1.40;;;2.80;99.90;;;;;;4140181;28;20291;-56
2021/12/01 04:03:42;;;;;;;1.50;1.30;;;2.80;99.90;;;;;;4139848;28;20341;-53
2021/12/01 04:05:43;;;;;;;3.23;1.70;;;2.80;99.90;;;;;;4128527;28;20338;-55
2021/12/01 04:07:44;;;;;;;4.80;1.80;;;2.80;99.90;;;;;;4123649;28;20732;-55
2021/12/01 04:09:46;;;;;;;1.60;1.03;;;2.80;99.90;;;;;;4124586;28;20337;-53
2021/12/01 04:11:47;;;;;;;1.97;1.57;;;2.80;99.90;;;;;;4123573;28;20315;-56
2021/12/01 04:13:49;;;;;;;2.10;1.90;;;2.90;99.90;;;;;;4125110;28;20252;-55
2021/12/01 04:15:50;;;;;;;2.80;1.53;;;2.80;99.90;;;;;;4123139;28;20264;-58
2021/12/01 04:17:51;;;;;;;2.13;1.50;;;2.90;99.90;;;;;;4124499;28;21100;-55
2021/12/01 04:19:52;;;;;;;2.03;1.70;;;2.90;99.90;;;;;;4123504;28;20323;-61
2021/12/01 04:21:54;;;;;;;4.63;1.60;;;2.90;99.90;;;;;;4125023;28;20276;-63
2021/12/01 04:23:55;;;;;;;2.70;1.90;;;2.90;99.90;;;;;;4128969;28;20821;-60
2021/12/01 04:25:57;;;;;;;2.77;2.50;;;2.90;99.90;;;;;;4140734;28;20272;-57
2021/12/01 04:27:58;;;;;;;2.70;1.80;;;2.90;99.90;;;;;;4140021;28;20326;-58
2021/12/01 04:29:59;;;;;;;2.07;1.50;;;3.00;99.90;;;;;;4143528;28;20264;-57
2021/12/01 04:32:00;;;;;;;2.43;1.67;;;3.00;99.90;;;;;;4142806;28;20275;-58
2021/12/01 04:34:02;;;;;;;1.70;1.50;;;3.00;99.90;;;;;;4142934;28;20946;-57
2021/12/01 04:36:04;;;;;;;1.40;1.30;;;3.00;99.90;;;;;;4143327;28;20275;-54
2021/12/01 04:38:06;;;;;;;2.70;1.43;;;3.10;99.90;;;;;;4142411;28;20284;-58
2021/12/01 04:40:08;;;;;;;3.00;1.80;;;3.10;99.90;;;;;;4143419;28;20744;-55
2021/12/01 04:42:10;;;;;;;3.57;1.60;;;3.10;99.90;;;;;;4141907;28;20291;-58
2021/12/01 04:44:14;;;;;;;3.37;1.47;;;3.10;99.90;;;;;;4143185;28;20706;-59
2021/12/01 04:46:18;;;;;;;2.10;1.47;;;3.10;99.90;;;;;;4142643;28;20357;-55
2021/12/01 04:48:21;;;;;;;1.73;1.30;;;3.10;99.90;;;;;;4143827;28;20605;-59
2021/12/01 04:50:25;;;;;;;1.77;1.40;;;3.20;99.90;;;;;;4142945;28;20287;-54
2021/12/01 04:52:26;;;;;;;2.03;1.60;;;3.20;99.90;;;;;;4143161;28;20275;-55
2021/12/01 04:54:28;;;;;;;1.70;1.57;;;3.20;99.90;;;;;;4141625;28;21125;-57
2021/12/01 04:56:30;;;;;;;3.03;1.77;;;3.20;99.90;;;;;;4143642;28;20322;-57
2021/12/01 04:58:33;;;;;;;1.50;1.17;;;3.20;99.90;;;;;;4142043;28;20321;-58
2021/12/01 05:00:36;;;;;;;2.30;1.57;;;3.20;99.90;;;;;;4141460;28;20334;-52
2021/12/01 05:02:37;;;;;;;1.83;1.57;;;3.20;99.90;;;;;;4141498;28;20295;-56
2021/12/01 05:04:41;;;;;;;3.73;2.10;;;3.20;99.90;;;;;;4142851;28;20303;-58
2021/12/01 05:06:42;;;;;;;3.60;2.03;;;3.20;99.90;;;;;;4142616;28;20333;-55
2021/12/01 05:08:44;;;;;;;2.30;1.80;;;3.20;99.90;;;;;;4142742;28;20504;-54
2021/12/01 05:10:45;;;;;;;4.03;2.73;;;3.20;99.90;;;;;;4142262;28;20754;-58
2021/12/01 05:12:47;;;;;;;2.77;1.87;;;3.20;99.90;;;;;;4142971;28;20837;-57
2021/12/01 05:14:48;;;;;;;2.57;1.83;;;3.20;99.90;;;;;;4141665;28;20275;-55
2021/12/01 05:16:49;;;;;;;1.63;1.50;;;3.20;99.90;;;;;;4141863;28;20322;-57
2021/12/01 05:18:51;;;;;;;2.07;1.33;;;3.20;99.90;;;;;;4143047;28;20330;-52
2021/12/01 05:20:52;;;;;;;2.80;1.20;;;3.20;99.90;;;;;;4141963;28;20590;-55
2021/12/01 05:22:53;;;;;;;2.90;1.57;;;3.20;99.90;;;;;;4143203;28;20824;-55
2021/12/01 05:24:55;;;;;;;3.10;1.67;;;3.20;99.90;;;;;;4141953;28;20342;-53
2021/12/01 05:26:56;;;;;;;2.83;2.07;;;3.20;99.90;;;;;;4143324;28;20337;-54
2021/12/01 05:28:57;;;;;;;2.50;1.90;;;3.20;99.90;;;;;;4141717;28;20283;-57
2021/12/01 05:30:59;;;;;;;2.10;1.50;;;3.20;99.90;;;;;;4142827;28;20810;-58
2021/12/01 05:33:05;;;;;;;2.27;1.80;;;3.10;99.90;;;;;;4139789;28;20279;-58
2021/12/01 05:35:07;;;;;;;2.53;1.90;;;3.10;99.90;;;;;;4142753;28;20304;-57
2021/12/01 05:37:09;;;;;;;2.90;2.00;;;3.10;99.90;;;;;;4142225;28;20754;-58
2021/12/01 05:39:10;;;;;;;2.37;1.87;;;3.10;99.90;;;;;;4142190;28;20315;-55
2021/12/01 05:41:11;;;;;;;3.23;2.30;;;3.10;99.90;;;;;;4141279;28;20276;-57
2021/12/01 05:43:12;;;;;;;4.47;2.33;;;3.00;99.90;;;;;;4141773;28;20730;-59
2021/12/01 05:45:13;;;;;;;4.27;1.90;;;2.90;99.90;;;;;;4142060;28;20267;-57
2021/12/01 05:47:14;;;;;;;4.03;2.57;;;2.90;99.90;;;;;;4141001;28;20306;-54
2021/12/01 05:49:16;;;;;;;5.43;2.73;;;2.90;99.90;;;;;;4141664;28;20321;-58
2021/12/01 05:51:17;;;;;;;3.60;2.33;;;2.80;99.90;;;;;;4141288;28;20310;-54
2021/12/01 05:53:18;;;;;;;6.67;3.37;;;2.80;99.90;;;;;;4142883;28;20337;-56
2021/12/01 05:55:19;;;;;;;8.17;3.70;;;2.80;99.90;;;;;;4141391;28;20313;-55
2021/12/01 05:57:21;;;;;;;4.40;2.77;;;2.70;99.90;;;;;;4142583;28;20760;-57
2021/12/01 05:59:22;;;;;;;4.07;2.10;;;2.70;99.90;;;;;;4140887;28;20333;-55
2021/12/01 06:01:23;;;;;;;6.17;2.63;;;2.70;99.90;;;;;;4142068;28;20326;-61
2021/12/01 06:03:24;;;;;;;3.83;2.20;;;2.70;99.90;;;;;;4141196;28;20298;-57
2021/12/01 06:05:25;;;;;;;5.33;2.83;;;2.70;99.90;;;;;;4141683;28;20317;-57
2021/12/01 06:07:26;;;;;;;2.93;2.00;;;2.70;99.90;;;;;;4141736;28;20314;-59
2021/12/01 06:09:28;;;;;;;3.93;2.20;;;2.70;99.90;;;;;;4135411;28;20346;-57
2021/12/01 06:11:29;;;;;;;4.37;2.00;;;2.80;99.90;;;;;;4125578;28;20746;-56
2021/12/01 06:13:30;;;;;;;2.57;2.00;;;2.80;99.90;;;;;;4125390;28;20334;-59
2021/12/01 06:15:31;;;;;;;2.00;1.80;;;2.80;99.90;;;;;;4125690;28;20342;-58
2021/12/01 06:17:33;;;;;;;3.10;1.80;;;2.80;99.90;;;;;;4124689;28;20295;-56
2021/12/01 06:19:35;;;;;;;2.00;1.67;;;2.80;99.90;;;;;;4125949;28;20692;-58
2021/12/01 06:21:37;;;;;;;3.80;2.00;;;2.90;99.90;;;;;;4130593;28;20306;-57
2021/12/01 06:23:39;;;;;;;2.30;1.67;;;2.80;99.90;;;;;;4141888;28;20708;-59
2021/12/01 06:25:40;;;;;;;13.77;6.20;;;2.80;99.90;;;;;;4141178;28;20818;-57
2021/12/01 06:27:42;;;;;;;15.70;7.23;;;2.90;99.90;;;;;;4141995;28;20287;-54
2021/12/01 06:29:43;;;;;;;41.00;15.23;;;2.90;99.90;;;;;;4140576;28;21132;-57
2021/12/01 06:31:44;;;;;;;37.63;14.90;;;2.90;99.90;;;;;;4141705;28;20267;-58
2021/12/01 06:33:45;;;;;;;17.27;7.83;;;2.90;99.90;;;;;;4153713;28;20270;-55
2021/12/01 06:35:49;;;;;;;15.40;7.93;;;2.90;99.90;;;;;;4141189;28;20333;-60
2021/12/01 06:37:52;;;;;;;15.40;8.30;;;2.90;99.90;;;;;;4140848;28;20318;-55
2021/12/01 06:39:53;;;;;;;8.37;4.90;;;2.90;99.90;;;;;;4141907;28;20276;-56
2021/12/01 06:41:54;;;;;;;10.97;6.07;;;2.90;99.90;;;;;;4140849;28;20593;-57
2021/12/01 06:43:55;;;;;;;7.13;5.30;;;2.90;99.90;;;;;;4140854;28;20307;-58
2021/12/01 06:45:56;;;;;;;5.80;4.97;;;2.90;99.90;;;;;;4140836;28;20601;-57
2021/12/01 06:47:58;;;;;;;6.33;4.57;;;2.90;99.90;;;;;;4139994;28;20260;-55
2021/12/01 06:49:59;;;;;;;5.60;3.83;;;2.90;99.90;;;;;;4141860;28;20264;-50
2021/12/01 06:52:01;;;;;;;4.97;3.27;;;2.90;99.90;;;;;;4140825;28;20272;-56
2021/12/01 06:54:02;;;;;;;5.23;4.00;;;2.90;99.90;;;;;;4141757;28;20263;-58
2021/12/01 06:56:04;;;;;;;5.93;4.00;;;2.90;99.90;;;;;;4128072;28;20438;-61
2021/12/01 06:58:05;;;;;;;6.43;4.20;;;2.90;99.90;;;;;;4140132;28;20346;-57
2021/12/01 07:00:10;;;;;;;6.33;4.30;;;2.90;99.90;;;;;;4123645;28;20304;-57
2021/12/01 07:02:11;;;;;;;7.40;3.93;;;2.90;99.90;;;;;;4124436;28;20276;-57
2021/12/01 07:04:14;;;;;;;8.40;4.63;;;3.00;99.90;;;;;;4130452;28;20747;-55
2021/12/01 07:06:15;;;;;;;11.17;5.77;;;3.00;99.90;;;;;;4141232;28;20267;-56
2021/12/01 07:08:16;;;;;;;7.47;4.00;;;3.00;99.90;;;;;;4140089;28;20314;-57
2021/12/01 07:10:17;;;;;;;7.93;3.47;;;3.10;99.90;;;;;;4141493;28;20321;-56
2021/12/01 07:12:18;;;;;;;5.53;3.00;;;3.10;99.90;;;;;;4140107;28;20667;-59
2021/12/01 07:14:20;;;;;;;6.23;2.87;;;3.10;99.90;;;;;;4140491;28;20671;-59
2021/12/01 07:16:22;;;;;;;9.73;5.03;;;3.10;99.90;;;;;;4140404;28;20318;-56
2021/12/01 07:18:23;;;;;;;10.23;4.43;;;3.00;99.90;;;;;;4140522;28;20272;-59
2021/12/01 07:20:24;;;;;;;8.77;4.33;;;3.00;99.90;;;;;;4141018;28;20334;-58
2021/12/01 07:22:25;;;;;;;4.97;2.73;;;3.00;99.90;;;;;;4140485;28;20330;-56
2021/12/01 07:24:29;;;;;;;6.27;3.30;;;3.10;99.90;;;;;;4140798;28;20878;-58
2021/12/01 07:26:30;;;;;;;5.10;2.77;;;3.10;99.90;;;;;;4139938;28;20794;-60
2021/12/01 07:28:31;;;;;;;5.47;2.77;;;3.10;99.90;;;;;;4139731;28;20271;-58
2021/12/01 07:30:35;;;;;;;3.57;2.33;;;3.10;99.90;;;;;;4140035;28;20262;-57
2021/12/01 07:32:37;;;;;;;4.03;2.37;;;3.10;99.90;;;;;;4140916;28;20432;-57
2021/12/01 07:34:42;;;;;;;4.03;2.87;;;3.20;99.90;;;;;;4139849;28;20310;-57
2021/12/01 07:36:43;;;;;;;2.63;2.40;;;3.20;99.90;;;;;;4140998;28;20264;-59
2021/12/01 07:38:44;;;;;;;3.23;2.50;;;3.30;99.90;;;;;;4139768;28;20652;-62
2021/12/01 07:40:45;;;;;;;5.50;2.30;;;3.40;99.90;;;;;;4140716;28;20267;-57
2021/12/01 07:42:46;;;;;;;4.03;2.30;;;3.50;99.90;;;;;;4137552;28;20311;-61
2021/12/01 07:44:47;;;;;;;5.97;3.00;;;3.50;99.90;;;;;;4124383;28;20326;-53
2021/12/01 07:46:50;;;;;;;5.50;3.23;;;3.60;99.90;;;;;;4123882;28;20314;-58
2021/12/01 07:48:51;;;;;;;4.60;2.90;;;3.60;99.90;;;;;;4124106;28;20301;-60
2021/12/01 07:50:52;;;;;;;2.87;1.97;;;3.60;99.90;;;;;;4124961;28;20310;-61
2021/12/01 07:52:53;;;;;;;3.83;2.60;;;3.60;99.90;;;;;;4123430;28;20284;-58
2021/12/01 07:54:54;;;;;;;6.10;2.93;;;3.60;99.90;;;;;;4125950;28;20334;-56
2021/12/01 07:56:56;;;;;;;5.30;2.50;;;3.60;99.90;;;;;;4139709;28;20774;-55
2021/12/01 07:58:57;;;;;;;3.47;2.40;;;3.60;99.90;;;;;;4155897;28;20781;-57
2021/12/01 08:00:58;;;;;;;3.33;2.20;;;3.60;99.90;;;;;;4131124;28;20272;-57
2021/12/01 08:02:59;;;;;;;4.40;2.43;;;3.60;99.90;;;;;;4124801;28;20791;-51
2021/12/01 08:05:00;;;;;;;3.80;2.80;;;3.60;99.90;;;;;;4126585;28;20752;-51
2021/12/01 08:07:02;;;;;;;3.23;2.23;;;3.60;99.90;;;;;;4127671;28;20280;-56
2021/12/01 08:09:04;;;;;;;8.17;3.77;;;3.60;99.90;;;;;;4126648;28;21053;-57
2021/12/01 08:11:05;;;;;;;11.07;5.00;;;3.70;99.90;;;;;;4128939;28;20704;-60
2021/12/01 08:13:06;;;;;;;15.43;6.93;;;3.70;99.90;;;;;;4126552;28;20390;-56
2021/12/01 08:15:08;;;;;;;8.20;4.33;;;3.70;99.90;;;;;;4142604;28;20267;-61
2021/12/01 08:17:09;;;;;;;8.17;3.77;;;3.70;99.90;;;;;;4142697;28;20617;-58
2021/12/01 08:19:10;;;;;;;8.90;3.93;;;3.70;99.90;;;;;;4143249;28;20267;-59
2021/12/01 08:21:11;;;;;;;6.57;2.73;;;3.80;99.90;;;;;;4143434;28;20264;-54
2021/12/01 08:23:12;;;;;;;5.80;3.17;;;3.80;99.90;;;;;;4142390;28;20295;-61
2021/12/01 08:25:14;;;;;;;4.67;2.77;;;3.80;99.90;;;;;;4143142;28;20297;-58
2021/12/01 08:27:16;;;;;;;4.83;3.00;;;3.90;99.90;;;;;;4140983;28;20326;-54
2021/12/01 08:29:18;;;;;;;4.23;3.00;;;3.90;99.90;;;;;;4143062;28;20341;-54
2021/12/01 08:31:20;;;;;;;3.20;2.57;;;3.90;99.90;;;;;;4141233;28;20276;-57
2021/12/01 08:33:21;;;;;;;6.63;4.17;;;3.90;99.90;;;;;;4143407;28;20767;-55
2021/12/01 08:35:24;;;;;;;5.77;4.10;;;4.00;99.90;;;;;;4141906;28;20279;-58
2021/12/01 08:37:25;;;;;;;5.83;3.77;;;4.00;99.90;;;;;;4143307;28;20732;-59
2021/12/01 08:39:27;;;;;;;6.20;3.27;;;4.00;99.90;;;;;;4141933;28;20377;-58
2021/12/01 08:41:28;;;;;;;5.73;2.90;;;4.00;99.90;;;;;;4141412;28;20279;-58
2021/12/01 08:43:29;;;;;;;4.13;2.63;;;4.00;99.90;;;;;;4126825;28;20354;-60
2021/12/01 08:45:32;;;;;;;7.63;3.57;;;4.10;99.90;;;;;;4126926;28;20272;-58
2021/12/01 08:47:33;;;;;;;6.97;3.20;;;4.20;99.90;;;;;;4125931;28;20314;-57
2021/12/01 08:49:35;;;;;;;9.83;5.37;;;4.20;99.90;;;;;;4126295;28;20370;-57
2021/12/01 08:51:36;;;;;;;6.47;3.50;;;4.20;99.90;;;;;;4126396;28;20334;-58
2021/12/01 08:53:41;;;;;;;4.67;2.70;;;4.30;99.90;;;;;;4126027;28;20280;-58
2021/12/01 08:55:44;;;;;;;5.23;2.77;;;4.30;99.90;;;;;;4125857;28;20338;-55
2021/12/01 08:57:45;;;;;;;4.63;2.80;;;4.30;99.90;;;;;;4140742;28;20310;-59
2021/12/01 08:59:48;;;;;;;4.60;2.20;;;4.40;99.90;;;;;;4141303;28;20735;-59
2021/12/01 09:01:49;;;;;;;3.40;2.17;;;4.30;99.90;;;;;;4130488;28;20277;-57
2021/12/01 09:03:50;;;;;;;3.37;1.70;;;4.30;99.90;;;;;;4127434;28;20378;-59
2021/12/01 09:05:53;;;;;;;5.13;2.77;;;4.30;99.90;;;;;;4125742;28;20284;-55
2021/12/01 09:07:54;;;;;;;3.70;2.27;;;4.30;99.90;;;;;;4126611;28;20329;-58
2021/12/01 09:09:55;;;;;;;5.67;3.33;;;4.40;99.90;;;;;;4126031;28;20323;-59
2021/12/01 09:11:56;;;;;;;9.10;2.83;;;4.40;99.90;;;;;;4126955;28;20272;-54
2021/12/01 09:13:58;;;;;;;4.47;2.60;;;4.40;99.90;;;;;;4125737;28;20268;-60
2021/12/01 09:16:00;;;;;;;6.53;2.57;;;4.30;99.90;;;;;;4126780;28;20355;-55
2021/12/01 09:18:02;;;;;;;4.60;2.53;;;4.40;99.90;;;;;;4125538;28;20917;-58
2021/12/01 09:20:04;;;;;;;4.57;2.27;;;4.40;99.90;;;;;;4139980;28;20357;-57
2021/12/01 09:22:05;;;;;;;4.97;2.00;;;4.40;99.90;;;;;;4142201;28;20263;-58
2021/12/01 09:24:07;;;;;;;3.17;1.80;;;4.40;99.90;;;;;;4142249;28;20365;-66
2021/12/01 09:26:08;;;;;;;2.07;1.70;;;4.40;99.90;;;;;;4141900;28;20326;-59
2021/12/01 09:28:09;;;;;;;3.93;1.40;;;4.30;99.90;;;;;;4141966;28;20267;-59
2021/12/01 09:30:13;;;;;;;3.10;1.83;;;4.30;99.90;;;;;;4142801;28;20275;-57
2021/12/01 09:32:15;;;;;;;7.03;2.50;;;4.30;99.90;;;;;;4141669;28;20287;-56
2021/12/01 09:34:16;;;;;;;5.97;2.00;;;4.30;99.90;;;;;;4143143;28;20740;-56
2021/12/01 09:36:17;;;;;;;7.73;2.40;;;4.30;99.90;;;;;;4140497;28;20279;-57
2021/12/01 09:38:19;;;;;;;3.20;2.30;;;4.30;99.90;;;;;;4142607;28;20276;-58
2021/12/01 09:40:20;;;;;;;4.27;1.73;;;4.20;99.90;;;;;;4141254;28;20687;-63
2021/12/01 09:42:21;;;;;;;3.83;2.50;;;4.30;99.90;;;;;;4137782;28;20297;-59
2021/12/01 09:44:23;;;;;;;3.90;2.27;;;4.20;99.90;;;;;;4136935;28;20964;-60
2021/12/01 09:46:27;;;;;;;3.73;1.70;;;4.30;99.90;;;;;;4142590;28;20275;-59
2021/12/01 09:48:29;;;;;;;2.83;1.80;;;4.20;99.90;;;;;;4141398;28;20263;-59
2021/12/01 09:50:31;;;;;;;2.73;1.50;;;4.20;99.90;;;;;;4142141;28;20743;-61
2021/12/01 09:52:32;;;;;;;2.73;1.47;;;4.20;99.90;;;;;;4141480;28;20263;-59
2021/12/01 09:54:36;;;;;;;2.13;1.60;;;4.10;99.90;;;;;;4141945;28;20276;-60
2021/12/01 09:56:37;;;;;;;4.13;2.20;;;4.20;99.90;;;;;;4141838;28;20263;-60
2021/12/01 09:58:39;;;;;;;5.10;1.90;;;4.20;99.90;;;;;;4141574;28;20271;-60
2021/12/01 10:00:43;;;;;;;4.33;1.90;;;4.30;99.90;;;;;;4141804;28;20739;-58
2021/12/01 10:02:45;;;;;;;5.37;1.80;;;4.30;99.90;;;;;;4141589;28;20325;-61
2021/12/01 10:04:46;;;;;;;4.80;2.13;;;4.30;99.90;;;;;;4142063;28;20342;-58
2021/12/01 10:06:47;;;;;;;5.10;2.30;;;4.40;99.90;;;;;;4140926;28;20267;-57
2021/12/01 10:08:50;;;;;;;2.73;2.17;;;4.40;99.90;;;;;;4142417;28;20306;-60
2021/12/01 10:10:53;;;;;;;2.77;2.03;;;4.40;99.90;;;;;;4141098;28;20280;-61
2021/12/01 10:12:56;;;;;;;7.87;2.10;;;4.40;99.90;;;;;;4142268;28;20337;-57
2021/12/01 10:14:58;;;;;;;2.97;1.83;;;4.40;99.90;;;;;;4139979;28;20330;-59
2021/12/01 10:16:59;;;;;;;2.90;1.93;;;4.40;99.90;;;;;;4147419;28;20620;-60
2021/12/01 10:19:04;;;;;;;4.17;2.43;;;4.40;99.90;;;;;;4140371;28;20268;-58
2021/12/01 10:21:28;;;;;;;3.33;1.93;;;4.40;99.90;;;;;;4141841;28;20330;-59
2021/12/01 10:23:29;;;;;;;10.40;3.37;;;4.50;99.90;;;;;;4140054;28;20291;-58
2021/12/01 10:25:30;;;;;;;9.93;4.60;;;4.50;99.90;;;;;;4141331;28;20286;-57
2021/12/01 10:27:38;;;;;;;8.63;3.97;;;4.50;99.90;;;;;;4139493;28;20329;-58
2021/12/01 10:29:43;;;;;;;5.97;3.03;;;4.50;99.90;;;;;;4141503;28;20276;-58
2021/12/01 10:31:55;;;;;;;4.33;2.13;;;4.60;99.90;;;;;;4139407;28;20439;-57
2021/12/01 10:34:32;;;;;;;5.80;2.50;;;4.60;99.90;;;;;;4142174;28;20361;-60
2021/12/01 10:36:33;;;;;;;5.63;2.50;;;4.60;99.90;;;;;;4132954;28;20303;-59
2021/12/01 10:38:39;;;;;;;6.50;3.30;;;4.60;99.90;;;;;;4128066;28;20267;-58
2021/12/01 10:40:41;;;;;;;3.03;2.27;;;4.70;99.90;;;;;;4139401;28;20279;-66
2021/12/01 10:43:01;;;;;;;9.93;2.93;;;4.70;99.90;;;;;;4140054;28;20318;-60
2021/12/01 10:45:08;;;;;;;3.92;2.78;;;4.80;99.90;;;;;;4140309;28;20283;-62
2021/12/01 10:47:11;;;;;;;6.83;3.20;;;4.80;99.90;;;;;;4141532;28;20026;-60
2021/12/01 10:49:13;;;;;;;5.67;3.10;;;4.80;99.90;;;;;;4140097;28;20322;-58
2021/12/01 10:51:33;;;;;;;3.87;3.27;;;5.00;99.90;;;;;;4141816;28;20841;-56